Time;durP1;ratioP1;P1;durP2;ratioP2;P2;SDS_P1;SDS_P2;PMS_P1;PMS_P2;Temp;Humidity;BMP_temperature;BMP_pressure;BME280_temperature;BME280_humidity;BME280_pressure;Samples;Min_cycle;Max_cycle;Signal;HPM_P1;HPM_P2
2022/07/01 00:00:42;;;;;;;;;;;14.90;99.90;;;;;;5074008;28;19904;-73
2022/07/01 00:03:08;;;;;;;;;;;14.90;99.90;;;;;;5074022;28;19904;-74
2022/07/01 00:05:33;;;;;;;;;;;14.90;99.90;;;;;;5074190;28;19911;-74
2022/07/01 00:07:59;;;;;;;;;;;14.90;99.90;;;;;;5073513;28;19909;-74
2022/07/01 00:10:25;;;;;;;;;;;14.90;99.90;;;;;;5074192;28;19958;-74
2022/07/01 00:12:50;;;;;;;;;;;14.90;99.90;;;;;;5074100;28;19904;-74
2022/07/01 00:15:16;;;;;;;;;;;14.90;99.90;;;;;;5073461;28;19904;-73
2022/07/01 00:17:43;;;;;;;;;;;14.90;99.90;;;;;;5073688;28;19909;-73
2022/07/01 00:20:09;;;;;;;;;;;14.80;99.90;;;;;;5055431;28;19904;-73
2022/07/01 00:22:34;;;;;;;;;;;14.80;99.90;;;;;;5073830;28;19909;-73
2022/07/01 00:25:00;;;;;;;;;;;14.80;99.90;;;;;;5073243;28;20007;-74
2022/07/01 00:27:26;;;;;;;;;;;14.70;99.90;;;;;;5073604;28;19905;-73
2022/07/01 00:29:51;;;;;;;;;;;14.70;99.90;;;;;;5073420;28;20255;-74
2022/07/01 00:32:17;;;;;;;;;;;14.70;99.90;;;;;;5073027;28;19904;-73
2022/07/01 00:34:42;;;;;;;;;;;14.70;99.90;;;;;;5073241;28;20481;-74
2022/07/01 00:37:08;;;;;;;;;;;14.70;99.90;;;;;;5072542;28;19927;-74
2022/07/01 00:39:35;;;;;;;;;;;14.70;99.90;;;;;;5072950;28;20087;-73
2022/07/01 00:42:01;;;;;;;;;;;14.70;99.90;;;;;;5072699;28;19908;-73
2022/07/01 00:44:27;;;;;;;;;;;14.70;99.90;;;;;;5073174;28;19974;-74
2022/07/01 00:46:53;;;;;;;;;;;14.70;99.90;;;;;;5073412;28;20347;-74
2022/07/01 00:49:19;;;;;;;;;;;14.70;99.90;;;;;;5073004;28;19909;-74
2022/07/01 00:51:45;;;;;;;;;;;14.60;99.90;;;;;;5073327;28;20377;-74
2022/07/01 00:54:11;;;;;;;;;;;14.70;99.90;;;;;;5072452;28;19909;-74
2022/07/01 00:56:37;;;;;;;;;;;14.70;99.90;;;;;;5073127;28;19908;-74
2022/07/01 00:59:03;;;;;;;;;;;14.70;99.90;;;;;;5072644;28;20400;-74
2022/07/01 01:01:29;;;;;;;;;;;14.70;99.90;;;;;;5073308;28;19927;-74
2022/07/01 01:03:55;;;;;;;;;;;14.70;99.90;;;;;;5072973;28;19953;-73
2022/07/01 01:06:21;;;;;;;;;;;14.70;99.90;;;;;;5072726;28;19904;-74
2022/07/01 01:08:46;;;;;;;;;;;14.70;99.90;;;;;;5055069;28;20339;-74
2022/07/01 01:11:13;;;;;;;;;;;14.70;99.90;;;;;;5072674;28;19908;-74
2022/07/01 01:13:39;;;;;;;;;;;14.70;99.90;;;;;;5073105;28;19994;-74
2022/07/01 01:16:04;;;;;;;;;;;14.60;99.90;;;;;;5072187;28;19935;-74
2022/07/01 01:18:30;;;;;;;;;;;14.60;99.90;;;;;;5073064;28;19905;-74
2022/07/01 01:20:56;;;;;;;;;;;14.60;99.90;;;;;;5072350;28;19905;-74
2022/07/01 01:23:21;;;;;;;;;;;14.60;99.90;;;;;;5072272;28;20354;-73
2022/07/01 01:25:47;;;;;;;;;;;14.60;99.90;;;;;;5072934;28;19904;-73
2022/07/01 01:28:12;;;;;;;;;;;14.50;99.90;;;;;;5072061;28;19909;-74
2022/07/01 01:30:38;;;;;;;;;;;14.50;99.90;;;;;;5073148;28;19908;-74
2022/07/01 01:33:04;;;;;;;;;;;14.50;99.90;;;;;;5054318;28;20288;-74
2022/07/01 01:35:31;;;;;;;;;;;14.50;99.90;;;;;;5072825;28;19995;-74
2022/07/01 01:37:56;;;;;;;;;;;14.50;99.90;;;;;;5054252;28;19916;-74
2022/07/01 01:40:22;;;;;;;;;;;14.50;99.90;;;;;;5072259;28;19958;-74
2022/07/01 01:42:48;;;;;;;;;;;14.50;99.90;;;;;;5072431;28;19909;-75
2022/07/01 01:45:13;;;;;;;;;;;14.60;99.90;;;;;;5072083;28;19911;-74
2022/07/01 01:47:39;;;;;;;;;;;14.50;99.90;;;;;;5072725;28;19904;-74
2022/07/01 01:50:05;;;;;;;;;;;14.50;99.90;;;;;;5071796;28;19962;-75
2022/07/01 01:52:31;;;;;;;;;;;14.50;99.90;;;;;;5072794;28;19904;-74
2022/07/01 01:54:57;;;;;;;;;;;14.50;99.90;;;;;;5072608;28;19947;-74
2022/07/01 01:57:22;;;;;;;;;;;14.50;99.90;;;;;;5071909;28;20015;-74
2022/07/01 01:59:48;;;;;;;;;;;14.50;99.90;;;;;;5054521;28;19908;-74
2022/07/01 02:02:13;;;;;;;;;;;14.50;99.90;;;;;;5072280;28;19904;-74
2022/07/01 02:04:39;;;;;;;;;;;14.40;99.90;;;;;;5072247;28;20401;-74
2022/07/01 02:07:05;;;;;;;;;;;14.40;99.90;;;;;;5071890;28;19904;-74
2022/07/01 02:09:30;;;;;;;;;;;14.40;99.90;;;;;;5072075;28;19909;-74
2022/07/01 02:11:56;;;;;;;;;;;14.40;99.90;;;;;;5072393;28;19908;-74
2022/07/01 02:14:22;;;;;;;;;;;14.40;99.90;;;;;;5053839;28;20343;-74
2022/07/01 02:16:47;;;;;;;;;;;14.40;99.90;;;;;;5072345;28;19999;-74
2022/07/01 02:19:13;;;;;;;;;;;14.40;99.90;;;;;;5071525;28;19927;-74
2022/07/01 02:21:38;;;;;;;;;;;14.40;99.90;;;;;;5072638;28;19912;-74
2022/07/01 02:24:04;;;;;;;;;;;14.40;99.90;;;;;;5071765;28;19908;-74
2022/07/01 02:26:30;;;;;;;;;;;14.50;99.90;;;;;;5072052;28;19951;-74
2022/07/01 02:28:55;;;;;;;;;;;14.50;99.90;;;;;;5072042;28;19958;-74
2022/07/01 02:31:21;;;;;;;;;;;14.50;99.90;;;;;;5071602;28;19905;-74
2022/07/01 02:33:47;;;;;;;;;;;14.40;99.90;;;;;;5073843;28;20011;-74
2022/07/01 02:36:13;;;;;;;;;;;14.50;99.90;;;;;;5075198;28;20504;-73
2022/07/01 02:38:38;;;;;;;;;;;14.50;99.90;;;;;;5076101;28;19917;-74
2022/07/01 02:41:04;;;;;;;;;;;14.50;99.90;;;;;;5075137;28;20002;-74
2022/07/01 02:43:30;;;;;;;;;;;14.50;99.90;;;;;;5076052;28;19919;-74
2022/07/01 02:45:58;;;;;;;;;;;14.50;99.90;;;;;;5057917;28;20377;-74
2022/07/01 02:48:24;;;;;;;;;;;14.50;99.90;;;;;;5075165;28;19908;-74
2022/07/01 02:50:49;;;;;;;;;;;14.50;99.90;;;;;;5075891;28;20473;-74
2022/07/01 02:53:15;;;;;;;;;;;14.50;99.90;;;;;;5074959;28;19904;-74
2022/07/01 02:55:41;;;;;;;;;;;14.50;99.90;;;;;;5075597;28;19932;-74
2022/07/01 02:58:06;;;;;;;;;;;14.50;99.90;;;;;;5074917;28;19904;-74
2022/07/01 03:00:32;;;;;;;;;;;14.50;99.90;;;;;;5075328;28;20248;-74
2022/07/01 03:02:57;;;;;;;;;;;14.50;99.90;;;;;;5075521;28;20397;-74
2022/07/01 03:05:23;;;;;;;;;;;14.60;99.90;;;;;;5074554;28;19901;-74
2022/07/01 03:07:49;;;;;;;;;;;14.50;99.90;;;;;;5075267;28;20279;-74
2022/07/01 03:10:14;;;;;;;;;;;14.50;99.90;;;;;;5074715;28;20007;-74
2022/07/01 03:12:40;;;;;;;;;;;14.50;99.90;;;;;;5075198;28;19904;-74
2022/07/01 03:15:06;;;;;;;;;;;14.50;99.90;;;;;;5075001;28;19904;-74
2022/07/01 03:17:33;;;;;;;;;;;14.40;99.90;;;;;;5075004;28;19904;-74
2022/07/01 03:19:59;;;;;;;;;;;14.40;99.90;;;;;;5075012;28;20275;-74
2022/07/01 03:22:28;;;;;;;;;;;14.40;99.90;;;;;;5074469;28;19904;-74
2022/07/01 03:24:54;;;;;;;;;;;14.40;99.90;;;;;;5075051;28;19904;-74
2022/07/01 03:27:19;;;;;;;;;;;14.40;99.90;;;;;;5074174;28;20146;-74
2022/07/01 03:29:45;;;;;;;;;;;14.40;99.90;;;;;;5074918;28;19942;-74
2022/07/01 03:32:11;;;;;;;;;;;14.40;99.90;;;;;;5074348;28;20004;-74
2022/07/01 03:34:37;;;;;;;;;;;14.30;99.90;;;;;;5074518;28;19904;-74
2022/07/01 03:37:04;;;;;;;;;;;14.30;99.90;;;;;;5074286;28;19923;-74
2022/07/01 03:39:29;;;;;;;;;;;14.30;99.90;;;;;;5074007;28;20404;-74
2022/07/01 03:41:55;;;;;;;;;;;14.20;99.90;;;;;;5074739;28;19912;-74
2022/07/01 03:44:20;;;;;;;;;;;14.30;99.90;;;;;;5073705;28;20275;-74
2022/07/01 03:46:46;;;;;;;;;;;14.30;99.90;;;;;;5074586;28;19946;-75
2022/07/01 03:49:11;;;;;;;;;;;14.30;99.90;;;;;;5073594;28;19926;-75
2022/07/01 03:51:37;;;;;;;;;;;14.30;99.90;;;;;;5074733;28;19908;-74
2022/07/01 03:56:47;;;;;;;;;;;14.30;99.90;;;;;;5074229;28;19911;-74
2022/07/01 03:59:12;;;;;;;;;;;14.30;99.90;;;;;;5073498;28;19904;-74
2022/07/01 04:01:38;;;;;;;;;;;14.30;99.90;;;;;;5074151;28;20281;-75
2022/07/01 04:04:03;;;;;;;;;;;14.30;99.90;;;;;;5074125;28;20448;-74
2022/07/01 04:06:29;;;;;;;;;;;14.30;99.90;;;;;;5055408;28;19970;-74
2022/07/01 04:08:55;;;;;;;;;;;14.20;99.90;;;;;;5074089;28;20343;-74
2022/07/01 04:11:21;;;;;;;;;;;14.20;99.90;;;;;;5073529;28;19915;-74
2022/07/01 04:13:50;;;;;;;;;;;14.20;99.90;;;;;;5074199;28;19919;-74
2022/07/01 04:16:16;;;;;;;;;;;14.20;99.90;;;;;;5073303;28;19904;-74
2022/07/01 04:18:42;;;;;;;;;;;14.20;99.90;;;;;;5073890;28;19905;-74
2022/07/01 04:23:52;;;;;;;;;;;14.20;99.90;;;;;;5073731;28;19911;-74
2022/07/01 04:26:17;;;;;;;;;;;14.30;99.90;;;;;;5073165;28;19908;-74
2022/07/01 04:28:46;;;;;;;;;;;14.20;99.90;;;;;;5073567;28;19962;-74
2022/07/01 04:31:12;;;;;;;;;;;14.20;99.90;;;;;;5072882;28;19961;-74
2022/07/01 04:33:37;;;;;;;;;;;14.20;99.90;;;;;;5073667;28;19983;-74
2022/07/01 04:36:03;;;;;;;;;;;14.20;99.90;;;;;;5073852;28;19904;-74
2022/07/01 04:38:28;;;;;;;;;;;14.30;99.90;;;;;;5072502;28;19916;-74
2022/07/01 04:43:58;;;;;;;;;;;14.30;99.90;;;;;;4991877;28;20323;-74
2022/07/01 04:46:23;;;;;;;;;;;14.30;99.90;;;;;;4991317;28;20020;-74
2022/07/01 04:48:49;;;;;;;;;;;14.30;99.90;;;;;;5028993;28;20003;-74
2022/07/01 04:51:14;;;;;;;;;;;14.30;99.90;;;;;;5072711;28;20359;-74
2022/07/01 04:53:40;;;;;;;;;;;14.30;99.90;;;;;;5073291;28;19934;-74
2022/07/01 04:56:06;;;;;;;;;;;14.30;99.90;;;;;;5072532;28;19911;-74
2022/07/01 04:58:31;;;;;;;;;;;14.30;99.90;;;;;;5072308;28;19904;-74
2022/07/01 05:00:57;;;;;;;;;;;14.30;99.90;;;;;;5072823;28;19965;-74
2022/07/01 05:03:22;;;;;;;;;;;14.20;99.90;;;;;;5054994;28;19905;-74
2022/07/01 05:05:48;;;;;;;;;;;14.30;99.90;;;;;;5072894;28;19904;-74
2022/07/01 05:08:13;;;;;;;;;;;14.30;99.90;;;;;;5072527;28;20371;-74
2022/07/01 05:10:39;;;;;;;;;;;14.40;99.90;;;;;;5072974;28;19908;-74
2022/07/01 05:13:04;;;;;;;;;;;14.30;99.90;;;;;;5072686;28;19915;-74
2022/07/01 05:15:30;;;;;;;;;;;14.30;99.90;;;;;;5072367;28;19904;-74
2022/07/01 05:23:24;;;;;;;;;;;14.40;99.90;;;;;;5071961;28;19915;-74
2022/07/01 05:25:50;;;;;;;;;;;14.40;99.90;;;;;;5072673;28;19904;-74
2022/07/01 05:28:15;;;;;;;;;;;14.50;99.90;;;;;;5071950;28;19908;-74
2022/07/01 05:30:41;;;;;;;;;;;14.50;99.90;;;;;;5072853;28;19912;-74
2022/07/01 05:33:06;;;;;;;;;;;14.40;99.90;;;;;;5072671;28;20354;-74
2022/07/01 05:35:32;;;;;;;;;;;14.50;99.90;;;;;;5054141;28;19905;-74
2022/07/01 05:37:58;;;;;;;;;;;14.50;99.90;;;;;;5072214;28;20290;-74
2022/07/01 05:40:25;;;;;;;;;;;14.50;99.90;;;;;;5072018;28;19905;-74
2022/07/01 05:42:51;;;;;;;;;;;14.50;99.90;;;;;;5072575;28;19904;-74
2022/07/01 05:45:17;;;;;;;;;;;14.40;99.90;;;;;;5072069;28;20373;-74
2022/07/01 05:47:42;;;;;;;;;;;14.40;99.90;;;;;;5072484;28;20250;-74
2022/07/01 05:50:08;;;;;;;;;;;14.50;99.90;;;;;;5072300;28;20268;-74
2022/07/01 05:52:34;;;;;;;;;;;14.50;99.90;;;;;;5072054;28;19900;-74
2022/07/01 05:54:59;;;;;;;;;;;14.40;99.90;;;;;;5072223;28;20263;-74
2022/07/01 05:57:25;;;;;;;;;;;14.40;99.90;;;;;;5071876;28;19904;-74
2022/07/01 05:59:50;;;;;;;;;;;14.30;99.90;;;;;;5072637;28;20369;-74
2022/07/01 06:02:16;;;;;;;;;;;14.30;99.90;;;;;;5072016;28;19905;-74
2022/07/01 06:04:43;;;;;;;;;;;14.40;99.90;;;;;;5054548;28;19905;-74
2022/07/01 06:07:10;;;;;;;;;;;14.30;99.90;;;;;;5073161;28;19994;-74
2022/07/01 06:09:36;;;;;;;;;;;14.30;99.90;;;;;;5075737;28;20202;-74
2022/07/01 06:12:01;;;;;;;;;;;14.30;99.90;;;;;;5076367;28;19940;-74
2022/07/01 06:14:27;;;;;;;;;;;14.30;99.90;;;;;;5075695;28;19943;-74
2022/07/01 06:16:52;;;;;;;;;;;14.30;99.90;;;;;;5076083;28;19953;-74
2022/07/01 06:19:19;;;;;;;;;;;14.30;99.90;;;;;;5075542;28;19930;-74
2022/07/01 06:21:45;;;;;;;;;;;14.40;99.90;;;;;;5076326;28;19908;-74
2022/07/01 06:24:10;;;;;;;;;;;14.40;99.90;;;;;;5076353;28;20259;-74
2022/07/01 06:26:36;;;;;;;;;;;14.40;99.90;;;;;;5075241;28;19900;-74
2022/07/01 06:29:01;;;;;;;;;;;14.40;99.90;;;;;;5076093;28;19990;-74
2022/07/01 06:31:27;;;;;;;;;;;14.40;99.90;;;;;;5075382;28;19943;-75
2022/07/01 06:33:53;;;;;;;;;;;14.40;99.90;;;;;;5075777;28;19904;-74
2022/07/01 06:36:18;;;;;;;;;;;14.30;99.90;;;;;;5075235;28;19927;-76
2022/07/01 06:38:44;;;;;;;;;;;14.20;99.90;;;;;;5075367;28;20011;-76
2022/07/01 06:41:27;;;;;;;;;;;14.20;99.90;;;;;;5075968;28;19904;-76
2022/07/01 06:44:00;;;;;;;;;;;14.20;99.90;;;;;;5075566;28;19911;-76
2022/07/01 06:46:26;;;;;;;;;;;14.30;99.90;;;;;;5074977;28;19912;-76
2022/07/01 06:48:52;;;;;;;;;;;14.20;99.90;;;;;;5075407;28;19963;-76
2022/07/01 06:51:18;;;;;;;;;;;14.30;99.90;;;;;;5075071;28;19908;-76
2022/07/01 06:53:44;;;;;;;;;;;14.30;99.90;;;;;;5075204;28;19947;-76
2022/07/01 06:56:10;;;;;;;;;;;14.40;99.90;;;;;;5075252;28;19911;-75
2022/07/01 06:58:36;;;;;;;;;;;14.30;99.90;;;;;;5074428;28;19954;-77
2022/07/01 07:01:01;;;;;;;;;;;14.40;99.90;;;;;;5075108;28;19905;-76
2022/07/01 07:03:27;;;;;;;;;;;14.30;99.90;;;;;;5074538;28;19904;-76
2022/07/01 07:05:53;;;;;;;;;;;14.30;99.90;;;;;;5075147;28;20270;-77
2022/07/01 07:08:19;;;;;;;;;;;14.40;99.90;;;;;;5074583;28;20002;-76
2022/07/01 07:10:44;;;;;;;;;;;14.50;99.90;;;;;;5074730;28;19963;-76
2022/07/01 07:13:10;;;;;;;;;;;14.50;99.90;;;;;;5075029;28;19911;-75
2022/07/01 07:15:35;;;;;;;;;;;14.50;99.90;;;;;;5074181;28;19904;-75
2022/07/01 07:18:01;;;;;;;;;;;14.60;99.90;;;;;;5074785;28;19911;-75
2022/07/01 07:20:27;;;;;;;;;;;14.60;99.90;;;;;;5073737;28;19904;-75
2022/07/01 07:22:53;;;;;;;;;;;14.70;99.90;;;;;;5074862;28;20322;-75
2022/07/01 07:25:19;;;;;;;;;;;14.80;99.90;;;;;;5074550;28;19908;-76
2022/07/01 07:27:46;;;;;;;;;;;14.90;99.90;;;;;;5074326;28;19908;-75
2022/07/01 07:30:15;;;;;;;;;;;15.10;99.90;;;;;;5074623;28;19915;-75
2022/07/01 07:32:41;;;;;;;;;;;15.20;99.90;;;;;;5074093;28;19915;-75
2022/07/01 07:35:07;;;;;;;;;;;15.40;99.90;;;;;;5056386;28;19908;-75
2022/07/01 07:37:32;;;;;;;;;;;15.50;99.90;;;;;;5073782;28;19923;-74
2022/07/01 07:39:58;;;;;;;;;;;15.60;99.90;;;;;;5074879;28;19904;-74
2022/07/01 07:42:24;;;;;;;;;;;15.60;99.90;;;;;;5073641;28;19944;-74
2022/07/01 07:44:49;;;;;;;;;;;15.60;99.90;;;;;;5056483;28;19905;-75
2022/07/01 07:47:15;;;;;;;;;;;15.70;99.90;;;;;;5074361;28;20003;-75
2022/07/01 07:49:40;;;;;;;;;;;15.70;99.90;;;;;;5073674;28;20493;-74
2022/07/01 07:52:06;;;;;;;;;;;15.70;99.90;;;;;;5074088;28;20014;-75
2022/07/01 07:54:32;;;;;;;;;;;15.70;99.90;;;;;;5072825;28;19912;-75
2022/07/01 07:56:57;;;;;;;;;;;15.70;99.90;;;;;;5073632;28;19905;-75
2022/07/01 07:59:23;;;;;;;;;;;15.90;99.90;;;;;;5072807;28;19908;-75
2022/07/01 08:01:48;;;;;;;;;;;16.10;99.90;;;;;;5073605;28;19989;-75
2022/07/01 08:04:14;;;;;;;;;;;16.10;99.90;;;;;;5073590;28;20611;-75
2022/07/01 08:06:39;;;;;;;;;;;16.10;99.90;;;;;;5072972;28;20277;-75
2022/07/01 08:09:06;;;;;;;;;;;16.20;99.90;;;;;;5073033;28;19946;-75
2022/07/01 08:11:31;;;;;;;;;;;16.10;99.90;;;;;;5072724;28;19962;-76
2022/07/01 08:13:57;;;;;;;;;;;16.00;99.90;;;;;;5073808;28;20251;-76
2022/07/01 08:16:23;;;;;;;;;;;16.00;99.90;;;;;;5073053;28;20418;-76
2022/07/01 08:18:49;;;;;;;;;;;16.00;99.90;;;;;;5073353;28;19951;-76
2022/07/01 08:21:14;;;;;;;;;;;16.00;99.90;;;;;;5073559;28;19908;-75
2022/07/01 08:23:40;;;;;;;;;;;16.00;99.90;;;;;;5072736;28;19958;-75
2022/07/01 08:26:05;;;;;;;;;;;16.00;99.90;;;;;;5073750;28;19905;-75
2022/07/01 08:28:31;;;;;;;;;;;16.00;99.90;;;;;;5072901;28;19915;-75
2022/07/01 08:30:57;;;;;;;;;;;16.10;99.90;;;;;;5073319;28;20305;-75
2022/07/01 08:33:22;;;;;;;;;;;16.30;99.90;;;;;;5073268;28;19912;-76
2022/07/01 08:35:48;;;;;;;;;;;16.40;99.90;;;;;;5073138;28;19905;-75
2022/07/01 08:38:13;;;;;;;;;;;16.50;99.90;;;;;;5073172;28;20267;-75
2022/07/01 08:40:39;;;;;;;;;;;16.60;99.90;;;;;;5072546;28;19958;-76
2022/07/01 08:43:06;;;;;;;;;;;16.60;99.90;;;;;;5073291;28;19916;-75
2022/07/01 08:45:33;;;;;;;;;;;16.70;99.90;;;;;;5072647;28;20003;-75
2022/07/01 08:48:03;;;;;;;;;;;16.80;99.90;;;;;;5073080;28;19904;-75
2022/07/01 08:50:29;;;;;;;;;;;16.80;99.90;;;;;;5072627;28;19908;-75
2022/07/01 08:52:55;;;;;;;;;;;16.90;99.90;;;;;;5073300;28;20275;-75
2022/07/01 08:55:21;;;;;;;;;;;17.00;99.90;;;;;;5072775;28;19958;-75
2022/07/01 08:57:47;;;;;;;;;;;17.00;99.90;;;;;;5072756;28;19908;-75
2022/07/01 09:00:12;;;;;;;;;;;17.10;99.90;;;;;;5072973;28;20305;-75
2022/07/01 09:02:51;;;;;;;;;;;17.00;99.90;;;;;;5072220;28;19958;-76
2022/07/01 09:05:17;;;;;;;;;;;17.00;99.90;;;;;;5072874;28;20270;-75
2022/07/01 09:07:43;;;;;;;;;;;17.00;99.90;;;;;;5054112;28;20362;-75
2022/07/01 09:10:13;;;;;;;;;;;16.90;99.90;;;;;;5072609;28;19927;-76
2022/07/01 09:12:40;;;;;;;;;;;17.00;99.90;;;;;;5072258;28;19966;-75
2022/07/01 09:15:19;;;;;;;;;;;17.10;99.90;;;;;;5054323;28;19904;-76
2022/07/01 09:17:44;;;;;;;;;;;17.20;99.90;;;;;;5073330;28;19958;-76
2022/07/01 09:20:22;;;;;;;;;;;17.30;99.90;;;;;;5073333;28;19940;-76
2022/07/01 09:23:06;;;;;;;;;;;17.30;99.90;;;;;;5072116;28;19991;-76
2022/07/01 09:25:33;;;;;;;;;;;17.20;99.90;;;;;;5071856;28;20021;-76
2022/07/01 09:28:03;;;;;;;;;;;17.20;99.90;;;;;;5072393;28;19943;-75
2022/07/01 09:30:28;;;;;;;;;;;17.10;99.90;;;;;;5072170;28;19940;-75
2022/07/01 09:33:07;;;;;;;;;;;17.00;99.90;;;;;;5072170;28;20143;-75
2022/07/01 09:35:33;;;;;;;;;;;17.00;99.90;;;;;;5071697;28;19904;-76
2022/07/01 09:37:59;;;;;;;;;;;16.90;99.90;;;;;;5071990;28;19978;-75
2022/07/01 09:40:25;;;;;;;;;;;16.80;99.90;;;;;;5053971;28;20301;-75
2022/07/01 09:42:50;;;;;;;;;;;16.70;99.90;;;;;;5072009;28;19992;-75
2022/07/01 09:45:16;;;;;;;;;;;16.70;99.90;;;;;;5072337;28;19905;-75
2022/07/01 09:47:45;;;;;;;;;;;16.70;99.90;;;;;;5071700;28;19905;-75
2022/07/01 09:50:10;;;;;;;;;;;16.70;99.90;;;;;;5072284;28;19955;-75
2022/07/01 09:52:36;;;;;;;;;;;16.70;99.90;;;;;;5071722;28;19908;-75
2022/07/01 09:55:02;;;;;;;;;;;16.90;99.90;;;;;;5072084;28;19943;-76
2022/07/01 09:57:28;;;;;;;;;;;17.10;99.90;;;;;;5071886;28;19911;-75
2022/07/01 09:59:54;;;;;;;;;;;17.30;99.90;;;;;;5072037;28;19920;-75
2022/07/01 10:02:21;;;;;;;;;;;17.30;99.90;;;;;;5072429;28;19958;-75
2022/07/01 10:04:48;;;;;;;;;;;17.30;99.90;;;;;;5071628;28;19972;-75
2022/07/01 10:07:28;;;;;;;;;;;17.30;99.90;;;;;;5071557;28;19927;-75
2022/07/01 10:09:59;;;;;;;;;;;17.20;99.90;;;;;;5071309;28;19953;-75
2022/07/01 10:12:33;;;;;;;;;;;17.30;99.90;;;;;;5071763;28;20363;-75
2022/07/01 10:15:00;;;;;;;;;;;17.30;99.90;;;;;;5072023;28;19911;-76
2022/07/01 10:17:27;;;;;;;;;;;17.40;99.90;;;;;;5071940;28;19961;-75
2022/07/01 10:19:56;;;;;;;;;;;17.30;99.90;;;;;;5053728;28;19904;-75
2022/07/01 10:22:27;;;;;;;;;;;17.40;99.90;;;;;;5071759;28;19905;-75
2022/07/01 10:24:53;;;;;;;;;;;17.30;99.90;;;;;;5071824;28;19904;-75
2022/07/01 10:27:19;;;;;;;;;;;17.20;99.90;;;;;;5071226;28;20374;-75
2022/07/01 10:29:45;;;;;;;;;;;17.20;99.90;;;;;;5070697;28;19912;-75
2022/07/01 10:32:26;;;;;;;;;;;17.30;99.90;;;;;;5071526;28;19926;-75
2022/07/01 10:35:03;;;;;;;;;;;17.20;99.90;;;;;;5071088;28;19904;-75
2022/07/01 10:37:28;;;;;;;;;;;17.20;99.90;;;;;;5053036;28;19916;-75
2022/07/01 10:40:01;;;;;;;;;;;17.30;99.90;;;;;;5053718;28;19912;-76
2022/07/01 10:42:29;;;;;;;;;;;17.30;99.90;;;;;;5071624;28;19904;-76
2022/07/01 10:45:05;;;;;;;;;;;17.40;99.90;;;;;;5071577;28;19951;-76
2022/07/01 10:47:31;;;;;;;;;;;17.50;99.90;;;;;;5071073;28;19904;-75
2022/07/01 10:50:07;;;;;;;;;;;17.80;99.90;;;;;;5071589;28;19931;-76
2022/07/01 10:52:33;;;;;;;;;;;18.00;99.90;;;;;;5071076;28;19915;-77
2022/07/01 10:55:00;;;;;;;;;;;18.10;99.90;;;;;;5073474;28;19909;-76
2022/07/01 10:57:28;;;;;;;;;;;18.10;99.90;;;;;;5074347;28;20255;-76
2022/07/01 10:59:53;;;;;;;;;;;18.10;99.90;;;;;;5074779;28;19912;-75
2022/07/01 11:02:22;;;;;;;;;;;18.00;99.90;;;;;;5074903;28;20309;-76
2022/07/01 11:04:49;;;;;;;;;;;17.90;99.90;;;;;;5074327;28;19908;-76
2022/07/01 11:07:15;;;;;;;;;;;17.90;99.90;;;;;;5074904;28;19958;-75
2022/07/01 11:09:40;;;;;;;;;;;18.00;99.90;;;;;;5074206;28;19916;-75
2022/07/01 11:12:06;;;;;;;;;;;18.10;99.90;;;;;;5074751;28;19999;-75
2022/07/01 11:14:36;;;;;;;;;;;18.20;99.90;;;;;;5073747;28;20022;-74
2022/07/01 11:17:02;;;;;;;;;;;18.20;99.90;;;;;;5074806;28;20343;-75
2022/07/01 11:19:27;;;;;;;;;;;18.20;99.90;;;;;;5074496;28;19953;-74
2022/07/01 11:21:53;;;;;;;;;;;18.10;99.90;;;;;;5056194;28;19909;-75
2022/07/01 11:24:19;;;;;;;;;;;18.10;99.90;;;;;;5074332;28;20008;-76
2022/07/01 11:26:45;;;;;;;;;;;18.10;99.90;;;;;;5073959;28;19908;-76
2022/07/01 11:29:11;;;;;;;;;;;18.10;99.90;;;;;;5074357;28;20308;-76
2022/07/01 11:31:37;;;;;;;;;;;18.30;99.90;;;;;;5073640;28;19919;-76
2022/07/01 11:34:03;;;;;;;;;;;18.40;99.90;;;;;;5074694;28;20284;-77
2022/07/01 11:39:22;;;;;;;;;;;18.90;99.90;;;;;;5074018;28;20345;-74
2022/07/01 11:41:51;;;;;;;;;;;19.00;99.90;;;;;;5073613;28;19904;-75
2022/07/01 11:44:27;;;;;;;;;;;19.10;99.90;;;;;;5055881;28;20008;-75
2022/07/01 11:46:53;;;;;;;;;;;19.10;99.90;;;;;;5073538;28;20394;-75
2022/07/01 11:49:23;;;;;;;;;;;19.10;99.90;;;;;;5074012;28;19908;-75
2022/07/01 11:51:56;;;;;;;;;;;19.20;99.90;;;;;;5073947;28;20034;-75
2022/07/01 11:54:22;;;;;;;;;;;19.20;99.90;;;;;;5074359;28;19919;-75
2022/07/01 11:56:48;;;;;;;;;;;19.20;99.90;;;;;;5073245;28;20317;-75
2022/07/01 11:59:13;;;;;;;;;;;19.20;99.90;;;;;;5073619;28;19911;-75
2022/07/01 12:01:39;;;;;;;;;;;19.20;99.90;;;;;;5055455;28;19912;-75
2022/07/01 12:04:06;;;;;;;;;;;19.00;99.90;;;;;;5073906;28;19995;-75
2022/07/01 12:06:32;;;;;;;;;;;19.00;99.90;;;;;;5072969;28;19928;-75
2022/07/01 12:08:58;;;;;;;;;;;19.00;99.90;;;;;;5073716;28;19914;-75
2022/07/01 12:11:25;;;;;;;;;;;19.10;99.90;;;;;;5073829;28;19909;-75
2022/07/01 12:13:51;;;;;;;;;;;19.30;99.90;;;;;;5073131;28;19908;-76
2022/07/01 12:16:17;;;;;;;;;;;19.40;99.90;;;;;;5073493;28;19904;-75
2022/07/01 12:18:59;;;;;;;;;;;19.50;99.90;;;;;;5073005;28;19904;-76
2022/07/01 12:21:25;;;;;;;;;;;19.50;99.90;;;;;;5073501;28;20339;-75
2022/07/01 12:24:07;;;;;;;;;;;19.50;99.90;;;;;;5072903;28;19915;-76
2022/07/01 12:26:33;;;;;;;;;;;19.50;99.90;;;;;;5073301;28;20325;-76
2022/07/01 12:28:59;;;;;;;;;;;19.60;99.90;;;;;;5073451;28;19954;-75
2022/07/01 12:31:24;;;;;;;;;;;19.70;99.90;;;;;;5073307;28;19912;-75
2022/07/01 12:33:51;;;;;;;;;;;19.80;99.90;;;;;;5072926;28;20003;-75
2022/07/01 12:36:16;;;;;;;;;;;19.70;99.90;;;;;;5073437;28;20274;-76
2022/07/01 12:38:42;;;;;;;;;;;19.70;99.90;;;;;;5072967;28;19917;-76
2022/07/01 12:41:26;;;;;;;;;;;19.70;99.90;;;;;;5073283;28;19916;-75
2022/07/01 12:43:52;;;;;;;;;;;19.60;99.90;;;;;;5072209;28;20278;-76
2022/07/01 12:46:28;;;;;;;;;;;19.50;99.90;;;;;;5073324;28;19911;-75
2022/07/01 12:48:53;;;;;;;;;;;19.40;99.90;;;;;;5072296;28;19908;-75
2022/07/01 12:51:19;;;;;;;;;;;19.20;99.90;;;;;;5072556;28;20275;-75
2022/07/01 12:53:44;;;;;;;;;;;19.10;99.90;;;;;;5054360;28;20271;-75
2022/07/01 12:56:21;;;;;;;;;;;19.10;99.90;;;;;;5071786;28;19957;-75
2022/07/01 12:58:46;;;;;;;;;;;19.00;99.90;;;;;;5071891;28;19911;-76
2022/07/01 13:01:13;;;;;;;;;;;19.10;99.90;;;;;;5072234;28;19908;-76
2022/07/01 13:03:39;;;;;;;;;;;19.10;99.90;;;;;;5072104;28;19905;-76
2022/07/01 13:06:04;;;;;;;;;;;19.10;99.90;;;;;;5055452;28;19915;-76
2022/07/01 13:08:30;;;;;;;;;;;19.00;99.90;;;;;;5072524;28;20338;-76
2022/07/01 13:10:55;;;;;;;;;;;18.90;99.90;;;;;;5072080;28;20094;-75
2022/07/01 13:13:21;;;;;;;;;;;18.80;99.90;;;;;;5072124;28;19912;-76
2022/07/01 13:15:47;;;;;;;;;;;18.70;99.90;;;;;;5072168;28;19904;-76
2022/07/01 13:18:14;;;;;;;;;;;18.60;99.90;;;;;;5072044;28;20278;-75
2022/07/01 13:20:40;;;;;;;;;;;18.50;99.90;;;;;;5071724;28;19905;-76
2022/07/01 13:23:06;;;;;;;;;;;18.40;99.90;;;;;;5054574;28;19904;-75
2022/07/01 13:25:31;;;;;;;;;;;18.40;99.90;;;;;;5072355;28;19904;-76
2022/07/01 13:27:57;;;;;;;;;;;18.40;99.90;;;;;;5071966;28;19998;-75
2022/07/01 13:30:23;;;;;;;;;;;18.50;99.90;;;;;;5072135;28;19913;-74
2022/07/01 13:32:52;;;;;;;;;;;18.50;99.90;;;;;;5072010;28;20418;-74
2022/07/01 13:35:18;;;;;;;;;;;18.40;99.90;;;;;;5072520;28;19905;-75
2022/07/01 13:37:43;;;;;;;;;;;18.30;99.90;;;;;;5071662;28;19916;-74
2022/07/01 13:40:10;;;;;;;;;;;18.20;99.90;;;;;;5072034;28;20283;-74
2022/07/01 13:42:35;;;;;;;;;;;18.30;99.90;;;;;;5054602;28;19995;-74
2022/07/01 13:45:01;;;;;;;;;;;18.20;99.90;;;;;;5071547;28;20377;-74
2022/07/01 13:47:27;;;;;;;;;;;18.20;99.90;;;;;;5072500;28;19998;-73
2022/07/01 13:49:53;;;;;;;;;;;18.10;99.90;;;;;;5071628;28;19999;-73
2022/07/01 13:52:18;;;;;;;;;;;18.10;99.90;;;;;;5072477;28;20007;-74
2022/07/01 13:54:44;;;;;;;;;;;18.00;99.90;;;;;;5071949;28;19920;-74
2022/07/01 13:57:10;;;;;;;;;;;17.90;99.90;;;;;;5071866;28;19904;-75
2022/07/01 13:59:35;;;;;;;;;;;17.90;99.90;;;;;;5071803;28;19939;-75
2022/07/01 14:02:01;;;;;;;;;;;17.80;99.90;;;;;;5071800;28;20011;-75
2022/07/01 14:04:26;;;;;;;;;;;17.60;99.90;;;;;;5072295;28;20375;-75
2022/07/01 14:06:52;;;;;;;;;;;17.50;99.90;;;;;;5071774;28;19911;-74
2022/07/01 14:09:18;;;;;;;;;;;17.40;99.90;;;;;;5072060;28;19908;-75
2022/07/01 14:11:44;;;;;;;;;;;17.40;99.90;;;;;;5071619;28;19916;-74
2022/07/01 14:14:10;;;;;;;;;;;17.30;99.90;;;;;;5072231;28;19920;-75
2022/07/01 14:16:36;;;;;;;;;;;17.20;99.90;;;;;;5071920;28;20312;-75
2022/07/01 14:19:01;;;;;;;;;;;17.10;99.90;;;;;;5071875;28;19908;-75
2022/07/01 14:21:27;;;;;;;;;;;17.00;99.90;;;;;;5072195;28;19911;-75
2022/07/01 14:23:53;;;;;;;;;;;17.00;99.90;;;;;;5071604;28;19905;-75
2022/07/01 14:26:18;;;;;;;;;;;17.00;99.90;;;;;;5072016;28;19905;-75
2022/07/01 14:28:44;;;;;;;;;;;17.00;99.90;;;;;;5055048;28;20354;-75